createdAt,value
2023-04-06T00:00:13.506Z,71.43
2023-04-06T00:01:13.459Z,70.67
2023-04-06T00:02:13.477Z,71.12
2023-04-06T00:03:13.522Z,71.43
2023-04-06T00:04:13.503Z,70.91
2023-04-06T00:05:13.456Z,71.43
2023-04-06T00:06:14.899Z,71.22
2023-04-06T00:07:13.438Z,71.64
2023-04-06T00:08:13.430Z,71.47
2023-04-06T00:09:13.418Z,71.98
2023-04-06T00:10:13.401Z,71.26
2023-04-06T00:11:13.393Z,71.88
2023-04-06T00:12:13.365Z,72.09
2023-04-06T00:13:13.389Z,72.19
2023-04-06T00:14:13.364Z,72.09
2023-04-06T00:15:13.347Z,71.98
2023-04-06T00:16:13.406Z,71.78
2023-04-06T00:17:13.342Z,72.19
2023-04-06T00:18:13.389Z,72.19
2023-04-06T00:19:13.370Z,72.51
2023-04-06T00:20:13.295Z,72.82
2023-04-06T00:21:13.338Z,72.85
2023-04-06T00:22:13.330Z,72.41
2023-04-06T00:23:13.268Z,72.19
2023-04-06T00:24:13.250Z,72.41
2023-04-06T00:25:13.244Z,71.88
2023-04-06T00:26:13.259Z,72.19
2023-04-06T00:27:13.233Z,72.09
2023-04-06T00:28:13.213Z,71.81
2023-04-06T00:29:13.208Z,73.13
2023-04-06T00:30:13.198Z,73.38
2023-04-06T00:31:13.163Z,73.03
2023-04-06T00:32:13.303Z,73.03
2023-04-06T00:33:13.189Z,73.24
2023-04-06T00:34:13.178Z,73.66
2023-04-06T00:35:13.135Z,72.92
2023-04-06T00:36:13.228Z,73.34
2023-04-06T00:37:13.157Z,73.07
2023-04-06T00:38:13.158Z,73.27
2023-04-06T00:39:13.145Z,73.27
2023-04-06T00:40:13.085Z,72.96
2023-04-06T00:41:13.104Z,72.61
2023-04-06T00:42:13.098Z,72.75
2023-04-06T00:43:13.085Z,73.55
2023-04-06T00:44:13.105Z,72.92
2023-04-06T00:45:13.102Z,73.17
2023-04-06T00:46:13.096Z,73.03
2023-04-06T00:47:13.036Z,73.34
2023-04-06T00:48:13.037Z,73.38
2023-04-06T00:49:13.023Z,73.55
2023-04-06T00:50:12.991Z,72.96
2023-04-06T00:51:13.025Z,73.27
2023-04-06T00:52:12.990Z,74.11
2023-04-06T00:53:12.982Z,73.97
2023-04-06T00:54:12.991Z,73.58
2023-04-06T00:55:12.965Z,73.45
2023-04-06T00:56:12.952Z,73.38
2023-04-06T00:57:12.949Z,73.45
2023-04-06T00:58:12.929Z,72.72
2023-04-06T00:59:14.079Z,72.82
2023-04-06T01:00:12.933Z,73.03
2023-04-06T01:01:12.910Z,72.92
2023-04-06T01:02:12.903Z,73.17
2023-04-06T01:03:12.879Z,72.82
2023-04-06T01:04:12.857Z,73.03
2023-04-06T01:05:12.936Z,72.92
2023-04-06T01:06:12.831Z,73.58
2023-04-06T01:07:12.844Z,73.76
2023-04-06T01:08:12.820Z,73.97
2023-04-06T01:09:12.839Z,74.01
2023-04-06T01:10:12.842Z,74.11
2023-04-06T01:11:12.816Z,74.42
2023-04-06T01:12:12.828Z,74.07
2023-04-06T01:13:12.827Z,74.01
2023-04-06T01:14:12.779Z,73.48
2023-04-06T01:15:12.750Z,73.79
2023-04-06T01:16:12.768Z,74.32
2023-04-06T01:17:12.771Z,74.32
2023-04-06T01:18:12.760Z,74.42
2023-04-06T01:19:12.751Z,73.90
2023-04-06T01:20:12.764Z,73.93
2023-04-06T01:21:12.713Z,73.79
2023-04-06T01:22:12.747Z,74.21
2023-04-06T01:23:12.764Z,74.21
2023-04-06T01:24:12.680Z,73.79
2023-04-06T01:25:12.722Z,74.01
2023-04-06T01:26:12.645Z,74.11
2023-04-06T01:27:12.677Z,74.21
2023-04-06T01:28:12.790Z,74.21
2023-04-06T01:29:12.633Z,74.32
2023-04-06T01:30:12.641Z,74.21
2023-04-06T01:31:12.633Z,74.11
2023-04-06T01:32:12.660Z,73.79
2023-04-06T01:33:12.599Z,74.32
2023-04-06T01:34:12.607Z,74.32
2023-04-06T01:35:12.592Z,74.52
2023-04-06T01:36:12.546Z,74.52
2023-04-06T01:37:12.559Z,74.11
2023-04-06T01:38:12.547Z,74.32
2023-04-06T01:39:12.530Z,73.69
2023-04-06T01:40:12.524Z,74.01
2023-04-06T01:41:12.526Z,74.32
2023-04-06T01:42:12.547Z,74.11
2023-04-06T01:43:12.501Z,74.32
2023-04-06T01:44:12.467Z,74.01
2023-04-06T01:45:12.493Z,74.21
2023-04-06T01:46:12.508Z,74.32
2023-04-06T01:47:12.519Z,74.32
2023-04-06T01:48:12.457Z,73.83
2023-04-06T01:49:12.462Z,73.83
2023-04-06T01:50:12.435Z,74.45
2023-04-06T01:51:12.424Z,74.56
2023-04-06T01:52:12.446Z,74.45
2023-04-06T01:53:12.481Z,74.35
2023-04-06T01:54:12.407Z,74.24
2023-04-06T01:55:12.432Z,74.45
2023-04-06T01:56:12.389Z,74.66
2023-04-06T01:57:12.363Z,74.87
2023-04-06T01:58:12.380Z,74.77
2023-04-06T01:59:12.440Z,74.66
2023-04-06T02:00:12.350Z,74.35
2023-04-06T02:01:12.378Z,74.56
2023-04-06T02:02:12.427Z,75.18
2023-04-06T02:03:12.531Z,75.39
2023-04-06T02:04:12.350Z,75.50
2023-04-06T02:05:12.268Z,75.18
2023-04-06T02:06:13.274Z,75.39
2023-04-06T02:07:12.295Z,74.56
2023-04-06T02:08:12.295Z,74.73
2023-04-06T02:09:12.276Z,75.39
2023-04-06T02:10:12.271Z,74.63
2023-04-06T02:11:12.251Z,74.98
2023-04-06T02:12:12.230Z,74.77
2023-04-06T02:13:12.214Z,74.45
2023-04-06T02:14:12.225Z,75.18
2023-04-06T02:15:12.231Z,74.56
2023-04-06T02:16:12.287Z,74.45
2023-04-06T02:17:12.171Z,74.32
2023-04-06T02:18:12.177Z,75.08
2023-04-06T02:19:12.141Z,75.08
2023-04-06T02:20:12.176Z,76.12
2023-04-06T02:21:12.182Z,74.45
2023-04-06T02:22:12.161Z,74.38
2023-04-06T02:23:12.117Z,74.87
2023-04-06T02:24:44.130Z,74.66
2023-04-06T02:25:12.111Z,75.60
2023-04-06T02:26:12.088Z,75.92
2023-04-06T02:27:12.086Z,76.26
2023-04-06T02:28:12.081Z,75.74
2023-04-06T02:29:12.099Z,75.95
2023-04-06T02:30:12.098Z,74.59
2023-04-06T02:31:12.054Z,74.49
2023-04-06T02:32:12.068Z,75.22
2023-04-06T02:33:12.042Z,75.63
2023-04-06T02:34:12.019Z,75.01
2023-04-06T02:35:12.011Z,74.59
2023-04-06T02:36:12.018Z,74.59
2023-04-06T02:37:12.022Z,74.73
2023-04-06T02:38:11.985Z,74.84
2023-04-06T02:39:12.008Z,74.52
2023-04-06T02:40:11.973Z,75.04
2023-04-06T02:41:11.973Z,74.31
2023-04-06T02:42:11.961Z,75.26
2023-04-06T02:43:11.915Z,76.09
2023-04-06T02:44:11.934Z,75.57
2023-04-06T02:45:11.953Z,75.98
2023-04-06T02:46:11.948Z,75.78
2023-04-06T02:47:11.913Z,76.61
2023-04-06T02:48:11.916Z,76.30
2023-04-06T02:49:11.885Z,75.92
2023-04-06T02:50:11.871Z,76.30
2023-04-06T02:51:11.887Z,76.61
2023-04-06T02:52:11.856Z,76.09
2023-04-06T02:53:11.851Z,75.98
2023-04-06T02:54:11.830Z,75.67
2023-04-06T02:55:11.813Z,75.98
2023-04-06T02:56:11.819Z,75.08
2023-04-06T02:57:11.837Z,74.63
2023-04-06T02:58:11.824Z,75.04
2023-04-06T02:59:12.037Z,75.81
2023-04-06T03:00:11.778Z,75.57
2023-04-06T03:01:11.804Z,75.88
2023-04-06T03:02:11.761Z,75.57
2023-04-06T03:03:11.784Z,75.57
2023-04-06T03:04:11.788Z,76.30
2023-04-06T03:05:11.742Z,75.98
2023-04-06T03:06:11.721Z,76.02
2023-04-06T03:07:11.711Z,76.12
2023-04-06T03:08:11.683Z,76.02
2023-04-06T03:09:11.683Z,76.54
2023-04-06T03:10:11.665Z,76.57
2023-04-06T03:11:11.765Z,76.86
2023-04-06T03:12:11.720Z,76.75
2023-04-06T03:13:11.651Z,76.68
2023-04-06T03:14:11.674Z,77.00
2023-04-06T03:15:11.651Z,77.00
2023-04-06T03:16:11.701Z,76.57
2023-04-06T03:17:11.621Z,76.86
2023-04-06T03:18:11.674Z,76.79
2023-04-06T03:19:11.592Z,76.86
2023-04-06T03:20:11.599Z,76.47
2023-04-06T03:21:11.565Z,76.26
2023-04-06T03:22:11.613Z,76.37
2023-04-06T03:23:45.874Z,76.47
2023-04-06T03:24:11.567Z,76.57
2023-04-06T03:25:11.542Z,77.10
2023-04-06T03:26:11.531Z,76.68
2023-04-06T03:27:11.524Z,76.68
2023-04-06T03:28:11.533Z,76.47
2023-04-06T03:29:12.514Z,76.89
2023-04-06T03:30:11.503Z,77.20
2023-04-06T03:31:11.526Z,76.68
2023-04-06T03:32:11.566Z,76.54
2023-04-06T03:33:11.516Z,76.37
2023-04-06T03:34:11.441Z,76.37
2023-04-06T03:35:11.451Z,76.57
2023-04-06T03:36:11.494Z,77.00
2023-04-06T03:37:11.422Z,77.10
2023-04-06T03:38:11.420Z,76.79
2023-04-06T03:39:11.462Z,77.31
2023-04-06T03:40:11.386Z,77.00
2023-04-06T03:41:11.444Z,76.57
2023-04-06T03:42:11.358Z,76.37
2023-04-06T03:43:11.410Z,76.16
2023-04-06T03:44:11.362Z,76.37
2023-04-06T03:45:11.381Z,76.89
2023-04-06T03:46:11.375Z,76.96
2023-04-06T03:47:11.308Z,76.47
2023-04-06T03:48:11.321Z,76.47
2023-04-06T03:49:11.300Z,76.68
2023-04-06T03:50:11.336Z,76.37
2023-04-06T03:51:11.309Z,76.57
2023-04-06T03:52:11.275Z,76.44
2023-04-06T03:53:11.409Z,76.26
2023-04-06T03:54:11.294Z,75.92
2023-04-06T03:55:11.277Z,76.33
2023-04-06T03:56:11.271Z,76.16
2023-04-06T03:57:11.244Z,76.37
2023-04-06T03:58:11.222Z,76.89
2023-04-06T03:59:11.456Z,77.03
2023-04-06T04:00:11.185Z,77.10
2023-04-06T04:01:11.235Z,76.93
2023-04-06T04:02:11.240Z,77.45
2023-04-06T04:03:11.515Z,77.42
2023-04-06T04:04:11.165Z,77.14
2023-04-06T04:05:11.203Z,77.14
2023-04-06T04:06:11.172Z,77.00
2023-04-06T04:07:11.171Z,77.10
2023-04-06T04:08:11.154Z,77.83
2023-04-06T04:09:11.242Z,76.57
2023-04-06T04:10:11.111Z,77.00
2023-04-06T04:11:12.114Z,77.10
2023-04-06T04:12:11.080Z,76.68
2023-04-06T04:13:11.075Z,76.54
2023-04-06T04:14:11.046Z,76.02
2023-04-06T04:15:11.057Z,75.92
2023-04-06T04:16:11.199Z,75.81
2023-04-06T04:17:11.015Z,75.81
2023-04-06T04:18:11.073Z,75.95
2023-04-06T04:19:11.163Z,76.37
2023-04-06T04:20:11.058Z,76.16
2023-04-06T04:21:11.022Z,76.96
2023-04-06T04:22:11.015Z,76.44
2023-04-06T04:23:11.002Z,76.75
2023-04-06T04:24:11.004Z,76.79
2023-04-06T04:25:10.958Z,76.79
2023-04-06T04:26:10.956Z,76.79
2023-04-06T04:27:10.991Z,76.61
2023-04-06T04:28:10.931Z,77.87
2023-04-06T04:29:11.045Z,77.10
2023-04-06T04:30:10.911Z,77.00
2023-04-06T04:31:10.971Z,77.31
2023-04-06T04:32:11.017Z,77.34
2023-04-06T04:33:10.907Z,77.45
2023-04-06T04:34:10.896Z,77.31
2023-04-06T04:35:10.911Z,77.10
2023-04-06T04:36:10.876Z,77.24
2023-04-06T04:37:10.872Z,77.10
2023-04-06T04:38:10.853Z,77.03
2023-04-06T04:39:10.874Z,77.10
2023-04-06T04:40:10.841Z,77.34
2023-04-06T04:41:10.829Z,77.42
2023-04-06T04:42:10.823Z,77.31
2023-04-06T04:43:10.807Z,76.57
2023-04-06T04:44:10.763Z,76.57
2023-04-06T04:45:10.804Z,76.89
2023-04-06T04:46:10.881Z,77.10
2023-04-06T04:47:10.785Z,77.31
2023-04-06T04:48:10.797Z,77.00
2023-04-06T04:49:10.887Z,77.31
2023-04-06T04:50:10.739Z,78.18
2023-04-06T04:51:10.748Z,77.76
2023-04-06T04:52:10.755Z,77.97
2023-04-06T04:53:10.729Z,77.97
2023-04-06T04:54:10.711Z,78.29
2023-04-06T04:55:10.689Z,78.39
2023-04-06T04:56:10.678Z,78.39
2023-04-06T04:57:10.670Z,78.29
2023-04-06T04:58:10.654Z,78.39
2023-04-06T04:59:10.848Z,77.83
2023-04-06T05:00:10.657Z,78.25
2023-04-06T05:01:10.666Z,78.04
2023-04-06T05:02:10.721Z,78.36
2023-04-06T05:03:10.665Z,78.56
2023-04-06T05:04:10.596Z,78.77
2023-04-06T05:05:10.613Z,78.67
2023-04-06T05:06:13.231Z,78.25
2023-04-06T05:07:10.587Z,77.10
2023-04-06T05:08:10.593Z,77.10
2023-04-06T05:09:10.702Z,77.73
2023-04-06T05:10:10.536Z,77.03
2023-04-06T05:11:10.547Z,77.87
2023-04-06T05:12:10.538Z,78.08
2023-04-06T05:13:10.549Z,78.39
2023-04-06T05:14:10.521Z,78.39
2023-04-06T05:15:10.514Z,78.70
2023-04-06T05:16:10.505Z,78.60
2023-04-06T05:17:10.808Z,78.85
2023-04-06T05:18:10.538Z,78.85
2023-04-06T05:19:10.661Z,78.67
2023-04-06T05:20:10.460Z,77.24
2023-04-06T05:21:10.441Z,74.60
2023-04-06T05:22:10.461Z,72.51
2023-04-06T05:23:10.457Z,70.43
2023-04-06T05:24:10.472Z,67.88
2023-04-06T05:25:10.479Z,66.47
2023-04-06T05:26:10.467Z,64.85
2023-04-06T05:27:10.478Z,63.23
2023-04-06T05:28:10.457Z,62.04
2023-04-06T05:29:10.600Z,60.42
2023-04-06T05:30:10.522Z,59.85
2023-04-06T05:31:10.406Z,57.94
2023-04-06T05:32:10.330Z,56.77
2023-04-06T05:33:10.377Z,56.62
2023-04-06T05:34:10.366Z,56.00
2023-04-06T05:35:10.319Z,54.92
2023-04-06T05:36:11.009Z,53.99
2023-04-06T05:37:10.316Z,53.97
2023-04-06T05:38:10.296Z,53.02
2023-04-06T05:39:10.496Z,52.69
2023-04-06T05:40:10.338Z,51.73
2023-04-06T05:41:10.261Z,51.30
2023-04-06T05:42:10.269Z,50.66
2023-04-06T05:43:10.236Z,49.91
2023-04-06T05:44:10.215Z,49.46
2023-04-06T05:45:10.228Z,48.21
2023-04-06T05:46:10.301Z,47.77
2023-04-06T05:47:10.180Z,46.83
2023-04-06T05:48:10.216Z,47.03
2023-04-06T05:49:10.381Z,47.13
2023-04-06T05:50:10.197Z,47.13
2023-04-06T05:51:10.147Z,47.24
2023-04-06T05:52:10.143Z,46.72
2023-04-06T05:53:10.129Z,46.30
2023-04-06T05:54:10.136Z,45.97
2023-04-06T05:55:10.750Z,45.89
2023-04-06T05:56:11.090Z,46.19
2023-04-06T05:57:10.120Z,45.64
2023-04-06T05:58:10.084Z,45.08
2023-04-06T05:59:10.320Z,44.38
2023-04-06T06:00:10.062Z,44.57
2023-04-06T06:01:10.087Z,43.44
2023-04-06T06:02:10.123Z,43.65
2023-04-06T06:03:10.093Z,43.73
2023-04-06T06:04:10.019Z,44.18
2023-04-06T06:05:10.071Z,43.84
2023-04-06T06:06:09.999Z,43.73
2023-04-06T06:07:09.987Z,44.24
2023-04-06T06:08:09.977Z,43.43
2023-04-06T06:09:10.067Z,43.22
2023-04-06T06:10:09.976Z,44.24
2023-04-06T06:11:09.987Z,43.73
2023-04-06T06:12:10.866Z,43.26
2023-04-06T06:13:09.930Z,44.61
2023-04-06T06:14:09.913Z,45.92
2023-04-06T06:15:09.900Z,44.47
2023-04-06T06:16:09.943Z,43.53
2023-04-06T06:17:09.894Z,43.38
2023-04-06T06:18:09.930Z,43.08
2023-04-06T06:19:09.933Z,42.45
2023-04-06T06:20:09.858Z,41.02
2023-04-06T06:21:09.852Z,42.18
2023-04-06T06:22:09.854Z,41.97
2023-04-06T06:23:09.846Z,42.20
2023-04-06T06:24:09.836Z,43.51
2023-04-06T06:25:09.856Z,41.97
2023-04-06T06:26:09.814Z,42.76
2023-04-06T06:27:09.815Z,42.04
2023-04-06T06:28:09.801Z,40.88
2023-04-06T06:29:09.998Z,41.20
2023-04-06T06:30:09.747Z,40.80
2023-04-06T06:31:09.768Z,42.45
2023-04-06T06:32:09.765Z,41.55
2023-04-06T06:33:09.733Z,42.04
2023-04-06T06:34:09.769Z,42.63
2023-04-06T06:35:09.716Z,41.08
2023-04-06T06:36:09.734Z,41.41
2023-04-06T06:37:09.689Z,40.57
2023-04-06T06:38:09.664Z,40.17
2023-04-06T06:39:10.102Z,40.67
2023-04-06T06:40:09.669Z,40.39
2023-04-06T06:41:09.667Z,40.80
2023-04-06T06:42:09.675Z,41.22
2023-04-06T06:43:09.700Z,41.94
2023-04-06T06:44:09.897Z,41.02
2023-04-06T06:45:09.615Z,42.45
2023-04-06T06:46:09.641Z,41.02
2023-04-06T06:47:09.621Z,41.42
2023-04-06T06:48:09.653Z,40.90
2023-04-06T06:49:09.605Z,41.19
2023-04-06T06:50:09.638Z,40.76
2023-04-06T06:51:09.595Z,41.14
2023-04-06T06:52:09.569Z,40.33
2023-04-06T06:53:09.564Z,39.84
2023-04-06T06:54:09.773Z,40.45
2023-04-06T06:55:09.557Z,40.55
2023-04-06T06:56:09.730Z,41.47
2023-04-06T06:57:09.552Z,40.55
2023-04-06T06:58:09.498Z,40.81
2023-04-06T06:59:09.506Z,42.65
2023-04-06T07:00:10.933Z,41.71
2023-04-06T07:01:09.624Z,42.26
2023-04-06T07:02:09.495Z,42.77
2023-04-06T07:03:09.468Z,41.94
2023-04-06T07:04:09.665Z,42.47
2023-04-06T07:05:19.965Z,42.04
2023-04-06T07:06:10.436Z,41.71
2023-04-06T07:07:09.450Z,40.88
2023-04-06T07:08:09.394Z,40.94
2023-04-06T07:09:09.399Z,41.57
2023-04-06T07:10:09.375Z,41.25
2023-04-06T07:11:09.399Z,41.55
2023-04-06T07:12:09.332Z,41.67
2023-04-06T07:13:09.387Z,40.84
2023-04-06T07:14:09.520Z,39.82
2023-04-06T07:15:09.319Z,41.13
2023-04-06T07:16:09.389Z,41.13
2023-04-06T07:17:09.780Z,39.28
2023-04-06T07:18:09.383Z,39.97
2023-04-06T07:19:09.284Z,38.83
2023-04-06T07:20:09.302Z,38.53
2023-04-06T07:21:09.314Z,38.51
2023-04-06T07:22:09.237Z,38.61
2023-04-06T07:23:09.284Z,38.41
2023-04-06T07:24:09.511Z,38.31
2023-04-06T07:25:09.219Z,39.44
2023-04-06T07:26:09.224Z,39.64
2023-04-06T07:27:09.221Z,39.53
2023-04-06T07:28:09.241Z,38.49
2023-04-06T07:29:09.196Z,38.90
2023-04-06T07:30:09.182Z,38.51
2023-04-06T07:31:09.176Z,38.49
2023-04-06T07:32:09.222Z,38.07
2023-04-06T07:33:09.156Z,37.95
2023-04-06T07:34:09.327Z,37.95
2023-04-06T07:35:09.115Z,38.07
2023-04-06T07:36:09.204Z,36.85
2023-04-06T07:37:09.116Z,37.13
2023-04-06T07:38:09.148Z,38.59
2023-04-06T07:39:09.097Z,38.41
2023-04-06T07:40:09.143Z,38.53
2023-04-06T07:41:09.085Z,38.61
2023-04-06T07:42:09.095Z,38.49
2023-04-06T07:43:09.087Z,38.31
2023-04-06T07:44:09.353Z,38.49
2023-04-06T07:45:09.039Z,38.10
2023-04-06T07:46:09.133Z,37.46
2023-04-06T07:47:09.010Z,36.44
2023-04-06T07:48:09.046Z,37.04
2023-04-06T07:49:09.013Z,37.17
2023-04-06T07:50:08.976Z,37.76
2023-04-06T07:51:09.001Z,37.35
2023-04-06T07:52:08.969Z,38.03
2023-04-06T07:53:08.981Z,36.80
2023-04-06T07:54:09.112Z,36.29
2023-04-06T07:55:08.964Z,35.70
2023-04-06T07:56:08.969Z,37.44
2023-04-06T07:57:08.947Z,37.34
2023-04-06T07:58:08.916Z,36.83
2023-04-06T07:59:08.953Z,36.43
2023-04-06T08:00:08.868Z,36.83
2023-04-06T08:01:08.890Z,36.00
2023-04-06T08:02:08.932Z,35.70
2023-04-06T08:03:08.927Z,35.31
2023-04-06T08:04:09.193Z,35.82
2023-04-06T08:05:08.867Z,36.73
2023-04-06T08:06:08.926Z,37.35
2023-04-06T08:07:08.853Z,36.36
2023-04-06T08:08:08.846Z,36.75
2023-04-06T08:09:08.802Z,36.93
2023-04-06T08:10:08.801Z,36.41
2023-04-06T08:11:08.807Z,37.20
2023-04-06T08:12:08.773Z,36.37
2023-04-06T08:13:08.774Z,35.35
2023-04-06T08:14:09.054Z,35.04
2023-04-06T08:15:08.751Z,35.44
2023-04-06T08:16:08.791Z,34.95
2023-04-06T08:17:08.774Z,36.56
2023-04-06T08:18:08.710Z,36.47
2023-04-06T08:19:08.773Z,36.78
2023-04-06T08:20:08.680Z,36.46
2023-04-06T08:21:08.738Z,36.15
2023-04-06T08:22:08.695Z,35.24
2023-04-06T08:23:08.644Z,34.45
2023-04-06T08:24:40.574Z,34.58
2023-04-06T08:25:08.653Z,34.69
2023-04-06T08:26:08.666Z,34.78
2023-04-06T08:27:08.686Z,34.78
2023-04-06T08:28:08.626Z,34.26
2023-04-06T08:29:08.608Z,34.56
2023-04-06T08:30:08.644Z,34.95
2023-04-06T08:31:08.585Z,33.92
2023-04-06T08:32:08.562Z,32.90
2023-04-06T08:33:08.624Z,31.87
2023-04-06T08:34:10.276Z,32.67
2023-04-06T08:35:08.545Z,32.04
2023-04-06T08:36:08.584Z,31.55
2023-04-06T08:37:08.559Z,32.68
2023-04-06T08:38:08.537Z,32.56
2023-04-06T08:39:08.535Z,32.48
2023-04-06T08:40:08.485Z,33.29
2023-04-06T08:41:08.497Z,33.61
2023-04-06T08:42:08.482Z,34.23
2023-04-06T08:43:08.515Z,33.22
2023-04-06T08:44:08.637Z,34.33
2023-04-06T08:45:08.434Z,32.79
2023-04-06T08:46:08.493Z,34.31
2023-04-06T08:47:08.443Z,34.20
2023-04-06T08:48:08.463Z,33.49
2023-04-06T08:49:08.425Z,32.67
2023-04-06T08:50:08.423Z,34.42
2023-04-06T08:51:08.430Z,34.22
2023-04-06T08:52:08.396Z,34.31
2023-04-06T08:53:08.383Z,32.59
2023-04-06T08:54:08.657Z,32.90
2023-04-06T08:55:08.353Z,32.20
2023-04-06T08:56:08.380Z,34.25
2023-04-06T08:57:08.334Z,34.65
2023-04-06T08:58:08.314Z,33.04
2023-04-06T08:59:08.350Z,31.83
2023-04-06T09:00:08.329Z,33.35
2023-04-06T09:01:08.286Z,34.26
2023-04-06T09:02:08.422Z,34.47
2023-04-06T09:03:08.439Z,33.54
2023-04-06T09:04:09.408Z,34.23
2023-04-06T09:05:09.269Z,34.13
2023-04-06T09:06:08.292Z,33.52
2023-04-06T09:07:08.253Z,34.92
2023-04-06T09:08:08.248Z,34.22
2023-04-06T09:09:08.231Z,32.70
2023-04-06T09:10:08.251Z,34.72
2023-04-06T09:11:08.230Z,33.10
2023-04-06T09:12:08.216Z,33.71
2023-04-06T09:13:08.181Z,33.20
2023-04-06T09:14:08.493Z,33.10
2023-04-06T09:15:08.190Z,33.81
2023-04-06T09:16:08.226Z,33.83
2023-04-06T09:17:08.197Z,34.31
2023-04-06T09:18:08.207Z,33.69
2023-04-06T09:19:08.150Z,34.20
2023-04-06T09:20:08.167Z,32.87
2023-04-06T09:21:08.093Z,33.56
2023-04-06T09:22:08.131Z,32.06
2023-04-06T09:23:08.073Z,31.67
2023-04-06T09:24:08.253Z,33.00
2023-04-06T09:25:08.098Z,34.22
2023-04-06T09:26:08.066Z,31.71
2023-04-06T09:27:08.043Z,33.96
2023-04-06T09:28:08.088Z,34.26
2023-04-06T09:29:08.034Z,32.82
2023-04-06T09:30:08.041Z,32.73
2023-04-06T09:31:08.048Z,34.13
2023-04-06T09:32:08.017Z,34.25
2023-04-06T09:33:08.122Z,35.06
2023-04-06T09:34:08.325Z,35.57
2023-04-06T09:35:07.980Z,34.65
2023-04-06T09:36:08.002Z,34.26
2023-04-06T09:37:07.937Z,34.45
2023-04-06T09:38:07.946Z,34.43
2023-04-06T09:39:07.921Z,34.31
2023-04-06T09:40:07.943Z,33.03
2023-04-06T09:41:07.925Z,34.97
2023-04-06T09:42:07.917Z,34.45
2023-04-06T09:43:07.920Z,34.34
2023-04-06T09:44:08.120Z,34.52
2023-04-06T09:45:07.861Z,34.11
2023-04-06T09:46:07.874Z,34.11
2023-04-06T09:47:07.973Z,34.11
2023-04-06T09:48:07.855Z,35.14
2023-04-06T09:49:08.054Z,33.03
2023-04-06T09:50:07.846Z,34.77
2023-04-06T09:51:07.861Z,35.07
2023-04-06T09:52:07.813Z,34.77
2023-04-06T09:53:07.814Z,33.75
2023-04-06T09:54:08.013Z,33.26
2023-04-06T09:55:07.784Z,34.87
2023-04-06T09:56:07.783Z,34.28
2023-04-06T09:57:07.821Z,34.97
2023-04-06T09:58:08.220Z,33.96
2023-04-06T09:59:08.164Z,34.78
2023-04-06T10:00:07.720Z,34.38
2023-04-06T10:01:07.819Z,34.28
2023-04-06T10:02:07.743Z,35.09
2023-04-06T10:03:09.268Z,33.16
2023-04-06T10:04:09.414Z,33.18
2023-04-06T10:05:07.732Z,33.58
2023-04-06T10:06:07.684Z,34.56
2023-04-06T10:07:07.663Z,33.03
2023-04-06T10:08:07.673Z,31.73
2023-04-06T10:09:07.649Z,32.57
2023-04-06T10:10:07.641Z,33.99
2023-04-06T10:11:07.630Z,34.31
2023-04-06T10:12:07.600Z,34.39
2023-04-06T10:13:07.638Z,34.38
2023-04-06T10:14:07.978Z,33.57
2023-04-06T10:15:07.600Z,32.87
2023-04-06T10:16:07.628Z,33.58
2023-04-06T10:17:07.604Z,33.19
2023-04-06T10:18:07.638Z,32.59
2023-04-06T10:19:07.530Z,34.41
2023-04-06T10:20:07.542Z,35.53
2023-04-06T10:21:07.562Z,33.19
2023-04-06T10:22:07.509Z,34.30
2023-04-06T10:23:07.528Z,33.19
2023-04-06T10:24:08.079Z,34.60
2023-04-06T10:25:07.481Z,34.11
2023-04-06T10:26:07.479Z,34.41
2023-04-06T10:27:07.502Z,34.72
2023-04-06T10:28:07.455Z,32.26
2023-04-06T10:29:07.475Z,34.31
2023-04-06T10:30:07.471Z,33.09
2023-04-06T10:31:07.527Z,34.72
2023-04-06T10:32:07.457Z,35.12
2023-04-06T10:33:07.468Z,35.02
2023-04-06T10:34:07.705Z,34.33
2023-04-06T10:35:07.448Z,34.74
2023-04-06T10:36:07.394Z,34.83
2023-04-06T10:37:07.366Z,34.31
2023-04-06T10:38:07.375Z,34.82
2023-04-06T10:39:07.383Z,34.02
2023-04-06T10:40:07.355Z,34.63
2023-04-06T10:41:07.342Z,35.02
2023-04-06T10:42:07.332Z,34.53
2023-04-06T10:43:07.344Z,34.53
2023-04-06T10:44:07.615Z,34.74
2023-04-06T10:45:07.293Z,34.83
2023-04-06T10:46:07.346Z,35.02
2023-04-06T10:47:07.283Z,33.99
2023-04-06T10:48:07.281Z,34.72
2023-04-06T10:49:07.264Z,35.02
2023-04-06T10:50:07.250Z,34.61
2023-04-06T10:51:07.246Z,34.41
2023-04-06T10:52:07.202Z,33.02
2023-04-06T10:53:07.227Z,33.63
2023-04-06T10:54:07.222Z,34.95
2023-04-06T10:55:07.258Z,34.75
2023-04-06T10:56:07.198Z,34.74
2023-04-06T10:57:07.190Z,34.33
2023-04-06T10:58:07.168Z,34.43
2023-04-06T10:59:07.178Z,34.82
2023-04-06T11:00:07.145Z,35.12
2023-04-06T11:01:07.208Z,32.79
2023-04-06T11:02:07.152Z,33.70
2023-04-06T11:03:07.109Z,34.52
2023-04-06T11:04:07.190Z,33.09
2023-04-06T11:05:07.169Z,33.72
2023-04-06T11:06:07.103Z,34.22
2023-04-06T11:07:07.074Z,34.43
2023-04-06T11:08:07.088Z,34.74
2023-04-06T11:09:07.109Z,33.70
2023-04-06T11:10:16.519Z,33.70
2023-04-06T11:11:09.042Z,33.01
2023-04-06T11:12:07.097Z,34.34
2023-04-06T11:13:07.045Z,34.87
2023-04-06T11:14:07.007Z,36.49
2023-04-06T11:15:06.999Z,35.88
2023-04-06T11:16:06.963Z,35.07
2023-04-06T11:17:07.119Z,36.29
2023-04-06T11:18:07.046Z,35.99
2023-04-06T11:19:06.971Z,36.78
2023-04-06T11:20:06.961Z,36.58
2023-04-06T11:21:06.931Z,35.44
2023-04-06T11:22:06.913Z,34.94
2023-04-06T11:23:06.953Z,35.44
2023-04-06T11:24:06.898Z,35.42
2023-04-06T11:25:06.887Z,35.83
2023-04-06T11:26:06.880Z,35.33
2023-04-06T11:27:06.857Z,35.41
2023-04-06T11:28:06.859Z,34.91
2023-04-06T11:29:06.887Z,35.09
2023-04-06T11:30:06.819Z,34.39
2023-04-06T11:31:06.865Z,35.11
2023-04-06T11:32:06.862Z,35.21
2023-04-06T11:33:06.850Z,34.80
2023-04-06T11:34:06.817Z,35.11
2023-04-06T11:35:06.810Z,34.61
2023-04-06T11:36:06.826Z,35.34
2023-04-06T11:37:06.787Z,35.16
2023-04-06T11:38:06.754Z,35.55
2023-04-06T11:39:06.746Z,35.34
2023-04-06T11:40:06.748Z,35.31
2023-04-06T11:41:06.719Z,37.12
2023-04-06T11:42:09.213Z,37.10
2023-04-06T11:43:07.719Z,34.58
2023-04-06T11:44:06.704Z,35.02
2023-04-06T11:45:06.682Z,35.86
2023-04-06T11:46:06.708Z,36.47
2023-04-06T11:47:06.675Z,36.68
2023-04-06T11:48:06.727Z,36.25
2023-04-06T11:49:06.706Z,37.17
2023-04-06T11:50:06.639Z,37.35
2023-04-06T11:51:06.662Z,36.54
2023-04-06T11:52:06.646Z,35.83
2023-04-06T11:53:06.585Z,35.64
2023-04-06T11:54:06.596Z,36.56
2023-04-06T11:55:06.585Z,37.58
2023-04-06T11:56:06.592Z,36.44
2023-04-06T11:57:06.594Z,35.83
2023-04-06T11:58:06.560Z,36.83
2023-04-06T11:59:06.624Z,36.54
2023-04-06T12:00:06.580Z,35.41
2023-04-06T12:01:06.513Z,36.34
2023-04-06T12:02:06.526Z,35.53
2023-04-06T12:03:06.669Z,36.56
2023-04-06T12:04:06.495Z,36.76
2023-04-06T12:05:06.517Z,36.25
2023-04-06T12:06:06.502Z,37.49
2023-04-06T12:07:06.466Z,37.49
2023-04-06T12:08:06.455Z,36.27
2023-04-06T12:09:06.426Z,36.60
2023-04-06T12:10:06.456Z,36.90
2023-04-06T12:11:06.416Z,37.41
2023-04-06T12:12:06.458Z,37.59
2023-04-06T12:13:06.420Z,36.99
2023-04-06T12:14:06.406Z,37.07
2023-04-06T12:15:06.405Z,36.44
2023-04-06T12:16:06.423Z,37.34
2023-04-06T12:17:06.373Z,36.61
2023-04-06T12:18:07.422Z,34.19
2023-04-06T12:19:06.340Z,34.00
2023-04-06T12:20:22.000Z,36.12
2023-04-06T12:21:07.323Z,34.48
2023-04-06T12:22:06.305Z,34.78
2023-04-06T12:23:06.348Z,36.82
2023-04-06T12:24:06.318Z,34.26
2023-04-06T12:25:06.295Z,35.46
2023-04-06T12:26:06.279Z,34.36
2023-04-06T12:27:10.582Z,34.89
2023-04-06T12:28:06.270Z,35.51
2023-04-06T12:29:06.242Z,35.72
2023-04-06T12:30:06.240Z,34.72
2023-04-06T12:31:06.222Z,36.14
2023-04-06T12:32:06.244Z,35.94
2023-04-06T12:33:06.273Z,35.94
2023-04-06T12:34:06.195Z,35.95
2023-04-06T12:35:06.207Z,35.86
2023-04-06T12:36:06.203Z,36.47
2023-04-06T12:37:07.176Z,36.54
2023-04-06T12:38:06.157Z,36.43
2023-04-06T12:39:06.143Z,36.44
2023-04-06T12:40:06.115Z,35.41
2023-04-06T12:41:06.157Z,35.72
2023-04-06T12:42:06.089Z,35.11
2023-04-06T12:43:06.102Z,34.19
2023-04-06T12:44:06.086Z,34.69
2023-04-06T12:45:06.093Z,34.97
2023-04-06T12:46:06.071Z,34.16
2023-04-06T12:47:06.196Z,34.47
2023-04-06T12:48:06.161Z,35.09
2023-04-06T12:49:06.048Z,35.60
2023-04-06T12:50:06.049Z,36.22
2023-04-06T12:51:06.023Z,35.11
2023-04-06T12:52:06.071Z,35.83